Strona główna
METAR-TAF:

METAR-TAF

Lotnisko :

Keene, New Hampshire, Stany Zjednoczone

Szerokość geograficzna: 42-54N, Długość geograficzna: 072-16W, wysokość: 149 m

Aktualna obserwacja pogody

Raport powstał 1 godzina i 2 minut temu, godzina 01:56 UTC
Cisza
Temperatura 7°C
Wilgotność 93%
Ciśnienie 1015 hPa
Widzialność: 16.1 km
Mało chmury na wysokości 4600 ft

METAR: KEEN 060156Z AUTO 00000KT 10SM FEW046 07/06 A2996 RMK AO2 SLP151 T00720061 $

czas: 22:58 (02:58 UTC)


TAF: brakujący

Obserwacja i prognoza pogody dla ponad 4000 lotnisk (raport METAR i TAF).

Dostępne stacje oznaczono żółtymi i czerwonymi punktami na mapie.

Najedź kursorem aby zobaczyć nazwę stacji.

Kliknij aby zobaczyć obserwacje i prognozy pogody.

Aby zmienić mapę: kliknij na zielony przycisk z czarnym krzyżykiem, aby powiększyć; na zielony przycisk z myślnikiem, aby pomniejszyć; na zielone strzałki, aby przejść do map sąsiednich.


METAR-TAF: